Alma, Colorado
Current Conditions -  °F | °C
As of 5:55 PM on Friday 28 Nov 2014 (Local Time) from KCCU Reporting Station
Clear Clear  
Wind Chill: 21°   Ceiling: Unl
Heat Index: 34°   Visibility: 10mi
Dew Point:   Wind: 26mph
Humidity: 25%   Direction: 260°W
Pressure: 30.2"   Gusts: 33mph
Location:  39.28°N, 106.06°W
Report Text: KCCU 290055Z AUTO 26023G29KT 10SM CLR 01/M17 A3020 RMK AO2
Loading
Personal Weather Stations






























Interactive Weather Map New forecast layout! Learn more

10-Day Weather Forecast

Advertisements
Track Severe Weather on mobile